createdAt,value
2018-10-06T16:01:14.768Z,9.70
2018-10-06T16:03:42.961Z,12.77
2018-10-06T16:06:11.144Z,3.33
2018-10-06T16:08:39.324Z,5.63
2018-10-06T16:11:07.520Z,6.30
2018-10-06T16:13:35.706Z,2.27
2018-10-06T16:16:03.868Z,3.47
2018-10-06T16:18:32.555Z,2.87
2018-10-06T16:21:00.732Z,4.60
2018-10-06T16:23:28.887Z,3.63
2018-10-06T16:25:57.070Z,3.13
2018-10-06T16:28:25.252Z,3.83
2018-10-06T16:30:53.420Z,3.50
2018-10-06T16:33:21.644Z,6.67
2018-10-06T16:35:49.749Z,3.17
2018-10-06T16:38:17.940Z,3.83
2018-10-06T16:40:46.139Z,3.30
2018-10-06T16:43:14.364Z,3.70
2018-10-06T16:45:43.420Z,2.40
2018-10-06T16:48:11.562Z,3.20
2018-10-06T16:50:39.831Z,4.97
2018-10-06T16:53:07.993Z,4.57
2018-10-06T16:55:36.212Z,3.27
2018-10-06T16:58:04.405Z,7.33
2018-10-06T17:00:32.580Z,31.57
2018-10-06T17:03:00.755Z,4.80
2018-10-06T17:05:28.936Z,3.83
2018-10-06T17:07:57.114Z,4.03
2018-10-06T17:10:25.305Z,5.57
2018-10-06T17:12:53.554Z,8.23
2018-10-06T17:15:21.631Z,5.67
2018-10-06T17:17:49.792Z,7.00
2018-10-06T17:20:17.945Z,6.03
2018-10-06T17:22:46.100Z,3.50
2018-10-06T17:25:14.349Z,5.47
2018-10-06T17:27:42.404Z,6.03
2018-10-06T17:30:10.573Z,4.47
2018-10-06T17:32:38.727Z,6.00
2018-10-06T17:35:06.763Z,4.63
2018-10-06T17:37:34.936Z,5.73
2018-10-06T17:40:03.173Z,3.60
2018-10-06T17:42:31.316Z,6.83
2018-10-06T17:44:59.472Z,3.73
2018-10-06T17:47:27.639Z,4.50
2018-10-06T17:49:55.881Z,5.00
2018-10-06T17:52:24.113Z,3.97
2018-10-06T17:54:52.296Z,3.77
2018-10-06T17:57:20.474Z,6.40
2018-10-06T17:59:48.628Z,7.53
2018-10-06T18:02:16.789Z,6.20
2018-10-06T18:04:44.990Z,4.43
2018-10-06T18:07:13.137Z,4.60
2018-10-06T18:09:41.294Z,8.53
2018-10-06T18:12:09.444Z,6.20
2018-10-06T18:14:37.708Z,3.23
2018-10-06T18:17:05.865Z,7.27
2018-10-06T18:19:34.008Z,4.10
2018-10-06T18:22:02.157Z,3.07
2018-10-06T18:24:30.339Z,3.67
2018-10-06T18:26:58.527Z,4.90
2018-10-06T18:29:26.869Z,4.50
2018-10-06T18:31:54.912Z,5.23
2018-10-06T18:34:23.064Z,3.87
2018-10-06T18:36:51.282Z,4.53
2018-10-06T18:39:19.470Z,8.33
2018-10-06T18:41:47.624Z,4.50
2018-10-06T18:44:15.806Z,4.10
2018-10-06T18:46:44.003Z,11.20
2018-10-06T18:49:12.176Z,5.03
2018-10-06T18:51:40.368Z,5.00
2018-10-06T18:54:08.576Z,4.40
2018-10-06T18:56:36.756Z,9.47
2018-10-06T18:59:04.899Z,3.60
2018-10-06T19:01:33.052Z,4.97
2018-10-06T19:04:01.336Z,4.47
2018-10-06T19:06:29.364Z,8.00
2018-10-06T19:08:57.741Z,4.40
2018-10-06T19:11:25.909Z,8.50
2018-10-06T19:13:54.105Z,6.90
2018-10-06T19:16:22.382Z,8.73
2018-10-06T19:18:50.480Z,5.23
2018-10-06T19:21:18.632Z,5.70
2018-10-06T19:23:46.776Z,7.70
2018-10-06T19:26:14.947Z,5.87
2018-10-06T19:28:43.088Z,6.37
2018-10-06T19:31:11.251Z,5.83
2018-10-06T19:33:39.389Z,4.67
2018-10-06T19:36:07.572Z,6.67
2018-10-06T19:38:35.738Z,6.23
2018-10-06T19:41:03.941Z,11.63
2018-10-06T19:43:32.132Z,9.93
2018-10-06T19:46:00.304Z,9.00
2018-10-06T19:48:28.432Z,6.63
2018-10-06T19:50:56.597Z,8.77
2018-10-06T19:53:24.740Z,8.17
2018-10-06T19:55:52.944Z,7.20
2018-10-06T19:58:21.112Z,6.30
2018-10-06T20:00:49.772Z,8.60
2018-10-06T20:03:17.940Z,7.57
2018-10-06T20:05:46.099Z,7.50
2018-10-06T20:08:14.261Z,7.80
2018-10-06T20:10:42.446Z,10.00
2018-10-06T20:13:10.591Z,6.93
2018-10-06T20:15:38.861Z,12.80
2018-10-06T20:18:07.001Z,15.53
2018-10-06T20:20:35.156Z,10.57
2018-10-06T20:23:03.305Z,12.87
2018-10-06T20:25:31.500Z,36.30
2018-10-06T20:27:59.652Z,31.33
2018-10-06T20:30:28.225Z,12.67
2018-10-06T20:32:56.435Z,11.43
2018-10-06T20:35:24.548Z,11.47
2018-10-06T20:37:52.736Z,12.67
2018-10-06T20:40:20.909Z,10.07
2018-10-06T20:42:49.064Z,12.60
2018-10-06T20:45:17.285Z,15.30
2018-10-06T20:47:45.456Z,14.13
2018-10-06T20:50:13.645Z,15.43
2018-10-06T20:52:41.847Z,14.17
2018-10-06T20:55:10.019Z,14.03
2018-10-06T20:57:38.172Z,15.97
2018-10-06T21:00:07.231Z,15.53
2018-10-06T21:02:35.385Z,13.63
2018-10-06T21:05:03.563Z,12.97
2018-10-06T21:07:31.703Z,11.43
2018-10-06T21:09:59.878Z,10.43
2018-10-06T21:12:28.029Z,8.77
2018-10-06T21:14:56.185Z,12.93
2018-10-06T21:17:24.358Z,10.00
2018-10-06T21:19:52.516Z,9.17
2018-10-06T21:22:20.680Z,13.13
2018-10-06T21:24:48.877Z,12.07
2018-10-06T21:27:17.031Z,18.57
2018-10-06T21:29:45.403Z,15.60
2018-10-06T21:32:13.344Z,13.90
2018-10-06T21:34:41.512Z,16.07
2018-10-06T21:37:09.661Z,12.13
2018-10-06T21:39:37.814Z,14.27
2018-10-06T21:42:05.975Z,9.77
2018-10-06T21:44:34.141Z,12.13
2018-10-06T21:47:02.264Z,11.50
2018-10-06T21:49:30.432Z,12.13
2018-10-06T21:51:58.592Z,10.27
2018-10-06T21:54:26.732Z,17.23
2018-10-06T21:56:54.926Z,13.00
2018-10-06T21:59:23.068Z,12.40
